Time;durP1;ratioP1;P1;durP2;ratioP2;P2;SDS_P1;SDS_P2;PMS_P1;PMS_P2;Temp;Humidity;BMP_temperature;BMP_pressure;BME280_temperature;BME280_humidity;BME280_pressure;Samples;Min_cycle;Max_cycle;Signal;HPM_P1;HPM_P2
2022/03/04 00:02:00;;;;;;;13.75;9.10;;;5.90;56.20;;;;;;5024741;28;20025;-73
2022/03/04 00:04:26;;;;;;;12.48;8.23;;;5.80;56.20;;;;;;5019234;28;20022;-72
2022/03/04 00:06:54;;;;;;;15.38;9.68;;;5.80;56.30;;;;;;5019738;28;20018;-72
2022/03/04 00:09:20;;;;;;;14.10;9.60;;;5.80;56.70;;;;;;5003354;28;20018;-72
2022/03/04 00:11:47;;;;;;;14.32;8.88;;;5.80;56.80;;;;;;5022655;28;20024;-72
2022/03/04 00:14:13;;;;;;;16.27;10.90;;;5.70;56.70;;;;;;5007488;28;20092;-72
2022/03/04 00:16:38;;;;;;;16.95;10.20;;;5.70;57.20;;;;;;5022454;28;20051;-72
2022/03/04 00:19:07;;;;;;;18.00;11.45;;;5.60;57.50;;;;;;5019886;28;20017;-75
2022/03/04 00:21:48;;;;;;;15.25;10.15;;;5.60;57.90;;;;;;5016997;28;20026;-72
2022/03/04 00:24:15;;;;;;;15.15;9.73;;;5.50;57.90;;;;;;5021675;28;20097;-72
2022/03/04 00:26:41;;;;;;;15.13;10.27;;;5.50;58.00;;;;;;5022151;28;20535;-73
2022/03/04 00:29:08;;;;;;;16.83;11.38;;;5.40;58.20;;;;;;5020757;28;20128;-72
2022/03/04 00:31:34;;;;;;;14.68;9.23;;;5.40;58.50;;;;;;5023091;28;20500;-72
2022/03/04 00:34:00;;;;;;;17.60;10.45;;;5.40;58.40;;;;;;5024096;28;20037;-73
2022/03/04 00:36:27;;;;;;;15.52;9.95;;;5.40;58.50;;;;;;5003547;28;20041;-73
2022/03/04 00:38:54;;;;;;;17.27;11.15;;;5.40;58.60;;;;;;5005091;28;20022;-74
2022/03/04 00:41:22;;;;;;;17.90;10.82;;;5.30;59.00;;;;;;5022734;28;20469;-73
2022/03/04 00:43:48;;;;;;;18.58;12.50;;;5.30;59.00;;;;;;5022395;28;20036;-73
2022/03/04 00:46:14;;;;;;;16.30;10.45;;;5.20;59.80;;;;;;5006961;28;20378;-73
2022/03/04 00:48:41;;;;;;;16.13;10.68;;;5.10;59.70;;;;;;5021635;28;20083;-72
2022/03/04 00:51:07;;;;;;;17.90;11.23;;;5.10;59.80;;;;;;5018654;28;20033;-73
2022/03/04 00:53:33;;;;;;;17.52;11.27;;;5.10;60.10;;;;;;5014669;28;20025;-72
2022/03/04 00:55:59;;;;;;;15.88;10.43;;;5.10;60.30;;;;;;5023834;28;20100;-72
2022/03/04 00:58:25;;;;;;;17.58;10.88;;;5.00;60.10;;;;;;5024589;28;20036;-72
2022/03/04 01:00:50;;;;;;;16.77;11.02;;;5.00;60.30;;;;;;5023464;28;20412;-72
2022/03/04 01:03:16;;;;;;;19.63;12.32;;;5.00;60.40;;;;;;5019119;28;20030;-72
2022/03/04 01:05:42;;;;;;;20.60;12.80;;;4.90;60.60;;;;;;5020581;28;20053;-72
2022/03/04 01:08:08;;;;;;;17.58;10.82;;;4.90;60.70;;;;;;5022383;28;20025;-72
2022/03/04 01:10:34;;;;;;;18.92;12.07;;;4.90;60.70;;;;;;5016650;28;20029;-72
2022/03/04 01:12:59;;;;;;;18.83;10.63;;;4.90;60.80;;;;;;5024321;28;20026;-72
2022/03/04 01:15:25;;;;;;;16.85;9.85;;;4.80;60.90;;;;;;5019561;28;20014;-75
2022/03/04 01:17:50;;;;;;;17.35;11.70;;;4.80;60.80;;;;;;5020131;28;20028;-72
2022/03/04 01:20:16;;;;;;;17.35;11.43;;;4.80;61.20;;;;;;5015677;28;20029;-72
2022/03/04 01:22:42;;;;;;;18.73;11.02;;;4.70;61.40;;;;;;5015819;28;20068;-72
2022/03/04 01:25:08;;;;;;;17.13;10.70;;;4.70;61.40;;;;;;5011689;28;20113;-72
2022/03/04 01:27:34;;;;;;;19.75;12.65;;;4.70;61.40;;;;;;4985963;28;20435;-72
2022/03/04 01:29:59;;;;;;;21.83;12.52;;;4.60;62.00;;;;;;4998686;28;20340;-72
2022/03/04 01:32:25;;;;;;;21.08;13.13;;;4.60;62.50;;;;;;5014572;28;20057;-72
2022/03/04 01:34:51;;;;;;;19.50;11.80;;;4.60;63.00;;;;;;5013940;28;20026;-72
2022/03/04 01:37:16;;;;;;;22.35;14.38;;;4.50;62.90;;;;;;5012006;28;20021;-72
2022/03/04 01:39:42;;;;;;;22.23;13.18;;;4.40;63.80;;;;;;5014724;28;20025;-73
2022/03/04 01:42:08;;;;;;;20.73;12.63;;;4.40;63.30;;;;;;4993099;28;20070;-72
2022/03/04 01:44:34;;;;;;;20.73;12.63;;;4.40;63.80;;;;;;5010079;28;20335;-72
2022/03/04 01:47:00;;;;;;;22.75;14.00;;;4.30;63.60;;;;;;5004999;28;20042;-72
2022/03/04 01:49:26;;;;;;;22.85;14.55;;;4.30;64.50;;;;;;4993639;28;20017;-73
2022/03/04 01:51:51;;;;;;;21.75;13.48;;;4.20;64.70;;;;;;4991985;28;20017;-72
2022/03/04 01:54:17;;;;;;;21.83;12.98;;;4.20;64.70;;;;;;5008697;28;20491;-72
2022/03/04 01:56:42;;;;;;;22.05;12.93;;;4.10;64.60;;;;;;4992790;28;20493;-72
2022/03/04 01:59:08;;;;;;;23.52;13.57;;;4.10;65.30;;;;;;5021094;28;20112;-72
2022/03/04 02:01:34;;;;;;;20.40;12.25;;;4.10;64.90;;;;;;4989650;28;20112;-72
2022/03/04 02:04:00;;;;;;;17.70;11.70;;;4.10;64.80;;;;;;5005774;28;20026;-72
2022/03/04 02:06:26;;;;;;;18.40;10.75;;;4.00;64.50;;;;;;5004997;28;20108;-73
2022/03/04 02:08:51;;;;;;;17.35;10.68;;;4.00;64.40;;;;;;5008171;28;20022;-72
2022/03/04 02:11:17;;;;;;;17.48;11.52;;;4.00;64.30;;;;;;5004744;28;20328;-73
2022/03/04 02:13:43;;;;;;;19.80;12.80;;;4.00;64.40;;;;;;5005799;28;20365;-72
2022/03/04 02:16:34;;;;;;;21.60;12.38;;;3.90;64.50;;;;;;5006283;28;20025;-72
2022/03/04 02:19:00;;;;;;;20.10;12.20;;;3.90;64.70;;;;;;5020094;28;20029;-72
2022/03/04 02:21:26;;;;;;;18.10;10.73;;;3.80;64.80;;;;;;5018709;28;20014;-72
2022/03/04 02:23:52;;;;;;;18.20;11.27;;;3.70;64.70;;;;;;4982755;28;20014;-72
2022/03/04 02:26:18;;;;;;;18.75;11.25;;;3.70;64.50;;;;;;5012704;28;20377;-73
2022/03/04 02:28:45;;;;;;;16.42;9.75;;;3.70;64.50;;;;;;5014971;28;20428;-73
2022/03/04 02:31:14;;;;;;;17.33;10.75;;;3.70;64.60;;;;;;5023586;28;20109;-73
2022/03/04 02:33:40;;;;;;;18.77;10.88;;;3.60;64.70;;;;;;5008767;28;20030;-72
2022/03/04 02:36:06;;;;;;;18.00;10.20;;;3.60;64.70;;;;;;5009130;28;20234;-71
2022/03/04 02:38:31;;;;;;;16.48;10.40;;;3.50;64.60;;;;;;5003765;28;20105;-73
2022/03/04 02:40:57;;;;;;;14.75;9.27;;;3.50;64.60;;;;;;5001639;28;20057;-72
2022/03/04 02:43:22;;;;;;;16.80;9.57;;;3.50;64.50;;;;;;4967844;28;20048;-73
2022/03/04 02:45:49;;;;;;;14.85;8.63;;;3.40;64.60;;;;;;5005938;28;20101;-73
2022/03/04 02:48:14;;;;;;;15.55;9.85;;;3.40;64.50;;;;;;4997820;28;20084;-72
2022/03/04 02:50:40;;;;;;;14.55;8.13;;;3.40;64.60;;;;;;4985143;28;20055;-73
2022/03/04 02:53:05;;;;;;;14.70;8.85;;;3.30;64.50;;;;;;5010654;28;20308;-72
2022/03/04 02:55:31;;;;;;;17.15;10.20;;;3.30;64.50;;;;;;5027820;28;20045;-72
2022/03/04 02:57:57;;;;;;;16.27;8.98;;;3.20;64.40;;;;;;5008261;28;20113;-72
2022/03/04 03:00:22;;;;;;;16.63;9.48;;;3.20;64.50;;;;;;5023541;28;20108;-72
2022/03/04 03:02:48;;;;;;;15.20;9.00;;;3.10;64.60;;;;;;5001560;28;20014;-73
2022/03/04 03:05:13;;;;;;;15.65;9.15;;;3.00;64.80;;;;;;5024371;28;20447;-73
2022/03/04 03:07:40;;;;;;;16.67;9.88;;;2.90;65.00;;;;;;5021962;28;20093;-72
2022/03/04 03:10:06;;;;;;;17.88;9.90;;;2.90;65.10;;;;;;5017665;28;20113;-73
2022/03/04 03:12:32;;;;;;;15.85;9.07;;;2.80;65.10;;;;;;5015914;28;20026;-72
2022/03/04 03:14:58;;;;;;;14.30;8.88;;;2.90;65.20;;;;;;5017060;28;20033;-72
2022/03/04 03:17:23;;;;;;;18.05;9.82;;;2.80;65.10;;;;;;5004174;28;20645;-72
2022/03/04 03:19:49;;;;;;;16.33;10.52;;;2.80;65.30;;;;;;5022353;28;20030;-72
2022/03/04 03:22:16;;;;;;;19.75;10.45;;;2.80;65.30;;;;;;5004932;28;20044;-72
2022/03/04 03:24:42;;;;;;;20.08;11.32;;;2.80;65.40;;;;;;4998014;28;20014;-72
2022/03/04 03:27:08;;;;;;;20.35;11.15;;;2.80;65.50;;;;;;4990056;28;20025;-73
2022/03/04 03:29:34;;;;;;;23.58;13.45;;;2.70;65.70;;;;;;4981336;28;20269;-72
2022/03/04 03:32:00;;;;;;;24.00;13.52;;;2.70;66.30;;;;;;4977326;28;20025;-72
2022/03/04 03:34:26;;;;;;;25.67;14.38;;;2.60;66.70;;;;;;4989065;28;20488;-72
2022/03/04 03:36:51;;;;;;;21.80;12.38;;;2.60;67.30;;;;;;4984660;28;20401;-72
2022/03/04 03:39:17;;;;;;;22.77;14.07;;;2.60;67.50;;;;;;4988660;28;20037;-71
2022/03/04 03:41:42;;;;;;;21.13;12.20;;;2.60;67.80;;;;;;4982451;28;20032;-71
2022/03/04 03:44:08;;;;;;;25.33;14.73;;;2.60;68.00;;;;;;4978006;28;20398;-71
2022/03/04 03:46:33;;;;;;;22.90;14.05;;;2.60;68.80;;;;;;4960519;28;20461;-72
2022/03/04 03:48:59;;;;;;;22.25;13.93;;;2.50;68.80;;;;;;4971660;28;20092;-71
2022/03/04 03:51:24;;;;;;;23.50;13.95;;;2.50;69.10;;;;;;4985465;28;20095;-72
2022/03/04 03:53:50;;;;;;;22.83;14.07;;;2.50;69.20;;;;;;4973184;28;20029;-72
2022/03/04 03:56:15;;;;;;;27.00;15.38;;;2.50;70.00;;;;;;5030267;28;20397;-71
2022/03/04 03:58:41;;;;;;;28.33;14.95;;;2.50;70.50;;;;;;5020596;28;20025;-71
2022/03/04 04:01:06;;;;;;;27.10;14.50;;;2.40;70.60;;;;;;5003965;28;20193;-71
2022/03/04 04:03:32;;;;;;;25.40;15.05;;;2.40;71.10;;;;;;5018960;28;20022;-71
2022/03/04 04:05:57;;;;;;;28.67;15.82;;;2.40;71.40;;;;;;5024592;28;20017;-71
2022/03/04 04:08:23;;;;;;;29.15;15.02;;;2.40;71.60;;;;;;5015552;28;20032;-72
2022/03/04 04:10:49;;;;;;;23.52;13.30;;;2.30;71.70;;;;;;4988404;28;20029;-72
2022/03/04 04:13:15;;;;;;;24.17;13.88;;;2.20;71.70;;;;;;5011358;28;20034;-71
2022/03/04 04:15:40;;;;;;;25.10;14.32;;;2.20;71.60;;;;;;5013100;28;20021;-71
2022/03/04 04:18:06;;;;;;;21.70;12.90;;;2.20;71.50;;;;;;4989957;28;20033;-71
2022/03/04 04:20:31;;;;;;;22.98;12.32;;;2.20;71.30;;;;;;5010213;28;20029;-71
2022/03/04 04:22:57;;;;;;;21.75;12.73;;;2.20;71.20;;;;;;5010341;28;20029;-71
2022/03/04 04:25:22;;;;;;;19.02;11.75;;;2.20;71.20;;;;;;4993023;28;20488;-71
2022/03/04 04:27:48;;;;;;;22.75;11.77;;;2.20;71.20;;;;;;5004677;28;20095;-72
2022/03/04 04:30:14;;;;;;;21.33;12.30;;;2.20;71.10;;;;;;5007477;28;20041;-72
2022/03/04 04:32:40;;;;;;;20.70;11.48;;;2.20;71.10;;;;;;4989607;28;20623;-71
2022/03/04 04:35:06;;;;;;;21.52;11.55;;;2.10;71.00;;;;;;5011215;28;20120;-71
2022/03/04 04:37:31;;;;;;;20.45;10.88;;;2.10;70.90;;;;;;5014891;28;20029;-71
2022/03/04 04:39:57;;;;;;;23.38;12.07;;;2.10;70.90;;;;;;4992252;28;20032;-71
2022/03/04 04:42:23;;;;;;;18.15;10.45;;;2.00;71.00;;;;;;4997977;28;20022;-71
2022/03/04 04:44:48;;;;;;;20.95;11.88;;;2.00;71.00;;;;;;5011016;28;20017;-71
2022/03/04 04:47:14;;;;;;;17.73;10.93;;;2.00;71.20;;;;;;5009021;28;20551;-71
2022/03/04 04:49:40;;;;;;;21.55;12.32;;;2.00;71.20;;;;;;5029439;28;20031;-71
2022/03/04 04:52:07;;;;;;;20.92;12.15;;;1.90;71.30;;;;;;5025368;28;20574;-72
2022/03/04 04:54:34;;;;;;;19.98;11.10;;;1.90;71.30;;;;;;5008745;28;20048;-71
2022/03/04 04:56:59;;;;;;;21.40;12.00;;;1.90;71.30;;;;;;5029799;28;20036;-71
2022/03/04 04:59:25;;;;;;;19.02;11.20;;;1.90;71.30;;;;;;5021257;28;20037;-72
2022/03/04 05:01:50;;;;;;;17.50;10.57;;;1.90;71.30;;;;;;5021188;28;20087;-71
2022/03/04 05:04:15;;;;;;;23.13;12.77;;;1.90;71.20;;;;;;5026176;28;20014;-71
2022/03/04 05:06:41;;;;;;;24.83;13.38;;;1.80;71.60;;;;;;5012735;28;20105;-71
2022/03/04 05:09:07;;;;;;;24.92;14.73;;;1.80;71.80;;;;;;5019391;28;20029;-71
2022/03/04 05:11:33;;;;;;;30.55;15.73;;;1.80;72.50;;;;;;4986826;28;20021;-71
2022/03/04 05:13:58;;;;;;;28.27;15.10;;;1.80;73.30;;;;;;5007915;28;20460;-71
2022/03/04 05:16:24;;;;;;;27.00;14.50;;;1.70;73.20;;;;;;5008808;28;20025;-71
2022/03/04 05:18:50;;;;;;;26.05;14.82;;;1.70;73.30;;;;;;5004262;28;20033;-71
2022/03/04 05:21:15;;;;;;;27.15;15.48;;;1.70;73.50;;;;;;5004824;28;20337;-71
2022/03/04 05:23:59;;;;;;;30.13;16.00;;;1.70;73.90;;;;;;5010029;28;20519;-71
2022/03/04 05:26:45;;;;;;;29.80;16.23;;;1.60;74.50;;;;;;4987045;28;20535;-71
2022/03/04 05:29:12;;;;;;;29.10;16.15;;;1.60;75.00;;;;;;4999875;28;20048;-72
2022/03/04 05:31:39;;;;;;;29.30;16.10;;;1.60;75.30;;;;;;5002618;28;20029;-71
2022/03/04 05:34:06;;;;;;;29.92;16.67;;;1.50;75.40;;;;;;4987331;28;20028;-71
2022/03/04 05:36:32;;;;;;;26.52;15.75;;;1.50;75.80;;;;;;4998731;28;20029;-71
2022/03/04 05:38:58;;;;;;;33.65;17.10;;;1.50;76.00;;;;;;5016370;28;20033;-71
2022/03/04 05:41:24;;;;;;;28.10;15.73;;;1.50;76.40;;;;;;5029639;28;20108;-71
2022/03/04 05:43:49;;;;;;;29.67;16.65;;;1.50;76.60;;;;;;5027241;28;20380;-71
2022/03/04 05:46:15;;;;;;;32.75;18.35;;;1.50;77.20;;;;;;5002238;28;20029;-71
2022/03/04 05:48:41;;;;;;;31.95;17.83;;;1.50;77.70;;;;;;4981736;28;20468;-71
2022/03/04 05:51:07;;;;;;;33.55;18.05;;;1.40;78.10;;;;;;4992468;28;20496;-71
2022/03/04 05:53:33;;;;;;;33.65;19.33;;;1.40;78.50;;;;;;4990698;28;20021;-71
2022/03/04 05:56:07;;;;;;;31.30;17.67;;;1.40;79.70;;;;;;5010001;28;20543;-71
2022/03/04 05:58:32;;;;;;;29.83;17.77;;;1.40;79.40;;;;;;5009738;28;20033;-71
2022/03/04 06:00:58;;;;;;;29.33;17.10;;;1.40;79.60;;;;;;5024417;28;20029;-71
2022/03/04 06:03:23;;;;;;;31.88;18.90;;;1.40;79.70;;;;;;5006849;28;20021;-71
2022/03/04 06:05:49;;;;;;;34.05;18.48;;;1.40;80.00;;;;;;5006578;28;20083;-71
2022/03/04 06:08:15;;;;;;;31.98;17.67;;;1.40;80.30;;;;;;4987652;28;20013;-71
2022/03/04 06:10:40;;;;;;;33.10;18.30;;;1.30;80.30;;;;;;5005758;28;20076;-71
2022/03/04 06:13:07;;;;;;;31.67;17.35;;;1.30;80.40;;;;;;4997690;28;20436;-72
2022/03/04 06:15:33;;;;;;;34.45;17.73;;;1.30;80.40;;;;;;5005828;28;20045;-72
2022/03/04 06:17:59;;;;;;;34.17;20.08;;;1.30;80.60;;;;;;5013723;28;20025;-72
2022/03/04 06:20:25;;;;;;;37.38;20.10;;;1.30;80.70;;;;;;5020812;28;20021;-72
2022/03/04 06:22:51;;;;;;;37.65;18.92;;;1.20;81.10;;;;;;4996685;28;20046;-72
2022/03/04 06:25:17;;;;;;;33.63;18.58;;;1.20;81.30;;;;;;4999395;28;20017;-71
2022/03/04 06:28:00;;;;;;;38.60;20.00;;;1.30;81.40;;;;;;5008152;28;20044;-71
2022/03/04 06:30:28;;;;;;;33.17;18.50;;;1.30;81.60;;;;;;5019267;28;20048;-71
2022/03/04 06:33:30;;;;;;;31.70;16.77;;;1.30;81.60;;;;;;5024461;28;20026;-70
2022/03/04 06:35:41;;;;;;;30.88;17.85;;;1.30;81.50;;;;;;5025051;28;20537;-71
2022/03/04 06:38:07;;;;;;;34.30;19.77;;;1.30;81.60;;;;;;5026328;28;20114;-70
2022/03/04 06:40:32;;;;;;;30.98;17.77;;;1.30;82.00;;;;;;5015600;28;20053;-70
2022/03/04 06:42:58;;;;;;;34.13;18.52;;;1.20;82.10;;;;;;5026328;28;20045;-71
2022/03/04 06:45:23;;;;;;;35.15;18.65;;;1.30;82.80;;;;;;5027807;28;20021;-71
2022/03/04 06:47:49;;;;;;;35.47;18.58;;;1.30;82.20;;;;;;5031536;28;20485;-70
2022/03/04 06:50:14;;;;;;;32.50;18.63;;;1.30;82.10;;;;;;5029888;28;20030;-70
2022/03/04 06:52:40;;;;;;;35.05;18.48;;;1.30;82.10;;;;;;5030341;28;20021;-70
2022/03/04 06:55:06;;;;;;;30.73;17.85;;;1.30;82.10;;;;;;5031652;28;20053;-70
2022/03/04 06:57:32;;;;;;;35.08;19.17;;;1.30;82.30;;;;;;4994551;28;20055;-71
2022/03/04 06:59:57;;;;;;;31.35;18.50;;;1.40;82.40;;;;;;5009442;28;20037;-71
2022/03/04 07:02:23;;;;;;;35.53;19.52;;;1.40;82.50;;;;;;5007039;28;20068;-70
2022/03/04 07:04:49;;;;;;;31.77;18.08;;;1.40;82.50;;;;;;5013512;28;20471;-70
2022/03/04 07:07:15;;;;;;;36.03;19.13;;;1.40;82.50;;;;;;5028132;28;20021;-71
2022/03/04 07:09:41;;;;;;;33.80;18.58;;;1.50;82.60;;;;;;5016602;28;20538;-70
2022/03/04 07:12:07;;;;;;;31.73;17.90;;;1.50;82.80;;;;;;5023031;28;20064;-70
2022/03/04 07:14:32;;;;;;;34.47;17.77;;;1.50;82.80;;;;;;5007061;28;20454;-70
2022/03/04 07:16:58;;;;;;;33.85;18.88;;;1.60;82.80;;;;;;5029300;28;20091;-71
2022/03/04 07:19:23;;;;;;;33.17;17.70;;;1.60;82.80;;;;;;5027042;28;20033;-71
2022/03/04 07:21:49;;;;;;;28.85;18.05;;;1.60;82.90;;;;;;5026916;28;20473;-71
2022/03/04 07:24:15;;;;;;;28.80;17.48;;;1.70;83.00;;;;;;5029428;28;20496;-71
2022/03/04 07:26:40;;;;;;;30.17;17.70;;;1.70;83.00;;;;;;5027491;28;20449;-71
2022/03/04 07:29:06;;;;;;;32.38;18.83;;;1.70;83.00;;;;;;5026531;28;20033;-71
2022/03/04 07:31:32;;;;;;;33.67;17.67;;;1.70;83.20;;;;;;5027497;28;20588;-71
2022/03/04 07:33:57;;;;;;;30.55;18.02;;;1.80;83.30;;;;;;5005226;28;20477;-71
2022/03/04 07:36:23;;;;;;;31.10;17.60;;;1.80;83.40;;;;;;5028176;28;20030;-70
2022/03/04 07:38:48;;;;;;;28.63;16.98;;;1.90;83.30;;;;;;5029887;28;20496;-71
2022/03/04 07:41:14;;;;;;;29.13;17.25;;;1.90;83.20;;;;;;5027622;28;20025;-70
2022/03/04 07:43:40;;;;;;;30.88;17.10;;;2.00;83.20;;;;;;5026210;28;20021;-71
2022/03/04 07:46:05;;;;;;;31.55;18.13;;;2.00;83.10;;;;;;5024486;28;20050;-71
2022/03/04 07:48:30;;;;;;;28.88;17.20;;;2.10;83.20;;;;;;5030130;28;20515;-71
2022/03/04 07:50:56;;;;;;;31.13;17.63;;;2.10;83.10;;;;;;5025941;28;20466;-71
2022/03/04 07:53:21;;;;;;;33.22;18.17;;;2.20;83.10;;;;;;5025661;28;20022;-71
2022/03/04 07:55:47;;;;;;;33.03;17.65;;;2.20;83.20;;;;;;5033446;28;20037;-71
2022/03/04 07:58:12;;;;;;;28.50;15.70;;;2.30;83.20;;;;;;5032973;28;20030;-71
2022/03/04 08:00:38;;;;;;;32.40;17.15;;;2.30;83.00;;;;;;5031050;28;20033;-71
2022/03/04 08:03:04;;;;;;;26.60;16.35;;;2.40;83.00;;;;;;5030370;28;20030;-71
2022/03/04 08:05:29;;;;;;;31.05;17.08;;;2.40;82.90;;;;;;5029789;28;20026;-71
2022/03/04 08:07:55;;;;;;;30.48;17.50;;;2.50;83.00;;;;;;5030038;28;20029;-71
2022/03/04 08:10:20;;;;;;;28.58;17.08;;;2.60;83.00;;;;;;5032571;28;20124;-71
2022/03/04 08:12:46;;;;;;;32.22;18.08;;;2.60;82.80;;;;;;5034212;28;20040;-71
2022/03/04 08:15:12;;;;;;;28.58;17.27;;;2.60;82.90;;;;;;5030033;28;20072;-71
2022/03/04 08:17:41;;;;;;;29.48;17.38;;;2.70;82.80;;;;;;5017290;28;20033;-71
2022/03/04 08:20:08;;;;;;;31.53;17.87;;;2.80;82.90;;;;;;5020151;28;20163;-71
2022/03/04 08:22:34;;;;;;;30.10;18.10;;;2.80;83.00;;;;;;5034262;28;20026;-71
2022/03/04 08:24:59;;;;;;;31.42;18.02;;;2.90;83.10;;;;;;5034819;28;20100;-70
2022/03/04 08:27:25;;;;;;;31.08;17.83;;;2.90;83.00;;;;;;5016703;28;20037;-71
2022/03/04 08:29:51;;;;;;;34.38;18.90;;;3.00;82.90;;;;;;5023877;28;20064;-71
2022/03/04 08:32:22;;;;;;;30.50;16.80;;;3.10;82.80;;;;;;5025504;28;20461;-70
2022/03/04 08:34:49;;;;;;;32.42;18.38;;;3.10;82.60;;;;;;5030058;28;20167;-71
2022/03/04 08:37:14;;;;;;;31.83;17.35;;;3.20;82.70;;;;;;5032265;28;20346;-71
2022/03/04 08:39:40;;;;;;;34.08;19.25;;;3.20;82.50;;;;;;5034427;28;20034;-71
2022/03/04 08:42:06;;;;;;;33.50;17.95;;;3.30;82.40;;;;;;5033806;28;20032;-71
2022/03/04 08:44:31;;;;;;;29.67;16.77;;;3.40;82.30;;;;;;5017228;28;20018;-71
2022/03/04 08:46:57;;;;;;;32.17;17.40;;;3.40;82.10;;;;;;5017090;28;20447;-71
2022/03/04 08:49:23;;;;;;;28.38;16.45;;;3.50;82.00;;;;;;5033897;28;20025;-71
2022/03/04 08:51:48;;;;;;;30.42;17.95;;;3.50;81.80;;;;;;5027516;28;20121;-70
2022/03/04 08:54:14;;;;;;;28.92;17.10;;;3.60;81.70;;;;;;5032832;28;20108;-72
2022/03/04 08:56:39;;;;;;;28.67;17.23;;;3.70;81.70;;;;;;5034040;28;20455;-71
2022/03/04 08:59:05;;;;;;;27.38;15.90;;;3.70;81.40;;;;;;5016387;28;20026;-71
2022/03/04 09:01:30;;;;;;;26.83;15.80;;;3.80;81.20;;;;;;5015816;28;20071;-70
2022/03/04 09:03:56;;;;;;;26.35;15.55;;;3.90;81.00;;;;;;5016241;28;20392;-71
2022/03/04 09:06:22;;;;;;;28.35;16.48;;;3.90;80.70;;;;;;5033095;28;20097;-71
2022/03/04 09:08:48;;;;;;;29.50;17.08;;;4.00;80.50;;;;;;5015611;28;20203;-70
2022/03/04 09:11:13;;;;;;;26.33;15.60;;;4.10;80.30;;;;;;5017881;28;20127;-71
2022/03/04 09:13:39;;;;;;;27.77;16.63;;;4.20;80.10;;;;;;5032889;28;20135;-71
2022/03/04 09:16:04;;;;;;;23.58;14.40;;;4.30;79.90;;;;;;5025723;28;20460;-71
2022/03/04 09:18:30;;;;;;;23.65;14.43;;;4.30;79.50;;;;;;5032641;28;20033;-71
2022/03/04 09:20:56;;;;;;;26.60;15.40;;;4.40;79.30;;;;;;5032201;28;20373;-71
2022/03/04 09:23:21;;;;;;;25.98;15.77;;;4.50;79.00;;;;;;5032758;28;20079;-71
2022/03/04 09:25:48;;;;;;;26.65;15.57;;;4.60;78.70;;;;;;5029662;28;20018;-71
2022/03/04 09:28:15;;;;;;;29.33;16.95;;;4.70;78.50;;;;;;5032835;28;20025;-71
2022/03/04 09:30:41;;;;;;;26.67;16.45;;;4.80;78.20;;;;;;5028893;28;20019;-65
2022/03/04 09:33:07;;;;;;;25.88;16.33;;;4.90;78.00;;;;;;5029439;28;20026;-65
2022/03/04 09:35:32;;;;;;;30.10;18.10;;;5.00;77.70;;;;;;5032511;28;20037;-65
2022/03/04 09:37:58;;;;;;;26.48;15.82;;;5.10;77.50;;;;;;5015380;28;20033;-65
2022/03/04 09:40:23;;;;;;;27.25;16.58;;;5.20;77.30;;;;;;5033345;28;20492;-65
2022/03/04 09:42:49;;;;;;;28.17;16.75;;;5.30;77.00;;;;;;5034149;28;20033;-66
2022/03/04 09:45:14;;;;;;;29.95;16.17;;;5.40;76.60;;;;;;5033547;28;20017;-66
2022/03/04 09:47:43;;;;;;;25.75;16.38;;;5.50;76.20;;;;;;5033698;28;20055;-66
2022/03/04 09:50:09;;;;;;;31.00;17.60;;;5.70;75.90;;;;;;5031859;28;20555;-66
2022/03/04 09:52:35;;;;;;;26.33;16.00;;;5.70;75.80;;;;;;5032367;28;20033;-66
2022/03/04 09:55:01;;;;;;;27.23;16.92;;;5.90;75.60;;;;;;5014758;28;20076;-66
2022/03/04 09:57:27;;;;;;;26.08;16.15;;;6.00;75.30;;;;;;5032406;28;20449;-66
2022/03/04 09:59:52;;;;;;;24.50;16.40;;;6.20;75.10;;;;;;5032426;28;20029;-65
2022/03/04 10:02:19;;;;;;;27.95;17.67;;;6.30;74.70;;;;;;5031270;28;20025;-65
2022/03/04 10:04:45;;;;;;;26.63;17.38;;;6.50;74.10;;;;;;5032817;28;20100;-66
2022/03/04 10:07:16;;;;;;;30.77;18.25;;;6.60;73.60;;;;;;5032536;28;20108;-65
2022/03/04 10:09:44;;;;;;;24.95;16.42;;;6.90;73.30;;;;;;5029300;28;20022;-66
2022/03/04 10:12:11;;;;;;;23.60;15.00;;;7.00;73.00;;;;;;5032083;28;20025;-66
2022/03/04 10:14:59;;;;;;;26.40;16.25;;;7.20;72.50;;;;;;5032026;28;20100;-66
2022/03/04 10:17:25;;;;;;;25.38;15.68;;;7.50;71.80;;;;;;5030060;28;20021;-66
2022/03/04 10:19:58;;;;;;;21.85;14.35;;;7.80;71.30;;;;;;5032218;28;20017;-66
2022/03/04 10:22:32;;;;;;;22.13;13.90;;;8.10;70.60;;;;;;5031898;28;20373;-66
2022/03/04 10:24:57;;;;;;;18.80;12.25;;;8.30;70.30;;;;;;5033096;28;20079;-66
2022/03/04 10:27:23;;;;;;;22.27;14.05;;;8.70;69.90;;;;;;5033211;28;20025;-66
2022/03/04 10:29:50;;;;;;;22.52;14.05;;;9.00;69.00;;;;;;5031680;28;20033;-66
2022/03/04 10:32:24;;;;;;;19.65;13.60;;;9.40;68.40;;;;;;5033251;28;20402;-66
2022/03/04 10:34:58;;;;;;;17.55;12.20;;;9.70;68.00;;;;;;5033246;28;20025;-66
2022/03/04 10:37:40;;;;;;;17.92;12.20;;;10.30;68.40;;;;;;5030350;28;20124;-66
2022/03/04 10:40:16;;;;;;;17.88;12.20;;;11.10;70.40;;;;;;5032621;28;20038;-66
2022/03/04 10:43:24;;;;;;;15.60;11.00;;;13.70;67.70;;;;;;5011046;28;20026;-67
2022/03/04 10:46:02;;;;;;;11.85;8.98;;;18.60;59.50;;;;;;4952680;28;20027;-67
2022/03/04 10:48:28;;;;;;;13.20;10.13;;;22.20;51.70;;;;;;5008541;28;20025;-67
2022/03/04 10:50:56;;;;;;;12.80;9.93;;;25.00;46.10;;;;;;5015906;28;20481;-67
2022/03/04 10:53:23;;;;;;;12.68;9.90;;;27.70;42.10;;;;;;5031285;28;20048;-67
2022/03/04 10:56:04;;;;;;;10.52;8.32;;;30.30;39.00;;;;;;5030715;28;20028;-67
2022/03/04 10:58:34;;;;;;;10.93;8.52;;;32.80;36.60;;;;;;5032075;28;20060;-68
2022/03/04 11:01:05;;;;;;;10.38;9.05;;;35.20;33.80;;;;;;5015142;28;20114;-67
2022/03/04 11:03:33;;;;;;;10.82;9.57;;;36.30;30.80;;;;;;5032609;28;20029;-67
2022/03/04 11:06:03;;;;;;;11.80;10.55;;;37.40;29.00;;;;;;5031306;28;20045;-67
2022/03/04 11:08:29;;;;;;;10.13;8.70;;;38.20;28.10;;;;;;5032694;28;20036;-68
2022/03/04 11:10:56;;;;;;;9.35;8.00;;;39.10;28.40;;;;;;5032723;28;20033;-68
2022/03/04 11:13:22;;;;;;;12.32;11.02;;;40.20;28.00;;;;;;5031299;28;20121;-68
2022/03/04 11:15:49;;;;;;;11.63;10.52;;;40.90;25.30;;;;;;5031301;28;20025;-68
2022/03/04 11:18:17;;;;;;;9.38;8.45;;;41.40;25.60;;;;;;5032532;28;20100;-68
2022/03/04 11:20:44;;;;;;;12.30;10.43;;;42.20;25.20;;;;;;5034504;28;20022;-68
2022/03/04 11:23:16;;;;;;;9.50;8.60;;;42.20;25.00;;;;;;5039261;28;20104;-67
2022/03/04 11:25:44;;;;;;;10.32;9.40;;;43.20;25.30;;;;;;5039164;28;20021;-68
2022/03/04 11:28:15;;;;;;;9.40;8.50;;;44.20;25.00;;;;;;5039387;28;20109;-68
2022/03/04 11:30:44;;;;;;;10.35;9.27;;;44.90;24.70;;;;;;5039219;28;20022;-67
2022/03/04 11:33:30;;;;;;;9.70;8.70;;;45.40;24.30;;;;;;5038895;28;20049;-67
2022/03/04 11:36:15;;;;;;;10.45;9.45;;;46.00;24.10;;;;;;5038170;28;20079;-69
2022/03/04 11:38:44;;;;;;;10.45;9.15;;;46.80;23.90;;;;;;5037139;28;20041;-69
2022/03/04 11:41:19;;;;;;;9.90;9.00;;;47.10;23.40;;;;;;5038852;28;20428;-68
2022/03/04 11:43:47;;;;;;;8.90;8.10;;;47.50;23.60;;;;;;5039043;28;20029;-69
2022/03/04 11:46:29;;;;;;;9.48;8.57;;;47.70;23.30;;;;;;5037643;28;20061;-68
2022/03/04 11:49:28;;;;;;;10.05;9.05;;;48.00;23.10;;;;;;5037166;28;20385;-68
2022/03/04 11:52:09;;;;;;;9.70;8.85;;;48.00;22.80;;;;;;5038953;28;20024;-68
2022/03/04 11:54:44;;;;;;;11.10;10.20;;;48.10;22.50;;;;;;5021196;28;20052;-68
2022/03/04 11:57:24;;;;;;;10.20;9.30;;;47.80;22.30;;;;;;5038552;28;20393;-69
2022/03/04 11:59:54;;;;;;;10.98;10.07;;;47.60;22.30;;;;;;5038818;28;20033;-68
2022/03/04 12:02:20;;;;;;;9.57;8.77;;;47.70;22.00;;;;;;5038787;28;20021;-68
2022/03/04 12:04:46;;;;;;;9.65;8.85;;;47.30;22.20;;;;;;5019763;28;20017;-68
2022/03/04 12:07:11;;;;;;;9.50;8.68;;;47.30;22.20;;;;;;5038115;28;20032;-68
2022/03/04 12:09:38;;;;;;;9.93;9.05;;;46.90;22.20;;;;;;5037415;28;20033;-68
2022/03/04 12:12:21;;;;;;;9.77;8.98;;;46.60;22.20;;;;;;5037840;28;20366;-68
2022/03/04 12:14:55;;;;;;;9.27;8.50;;;46.30;22.00;;;;;;5037009;28;20075;-68
2022/03/04 12:17:22;;;;;;;9.38;8.52;;;46.00;22.10;;;;;;5037754;28;20067;-68
2022/03/04 12:19:49;;;;;;;9.10;8.30;;;45.90;22.20;;;;;;5038559;28;20032;-67
2022/03/04 12:22:16;;;;;;;9.63;8.80;;;45.80;22.30;;;;;;5037551;28;20839;-67
2022/03/04 12:24:55;;;;;;;10.30;9.40;;;45.40;22.30;;;;;;5035092;28;20151;-67
2022/03/04 12:27:39;;;;;;;9.75;8.95;;;45.40;22.50;;;;;;5033674;28;20014;-68
2022/03/04 12:30:20;;;;;;;9.80;9.00;;;45.20;22.50;;;;;;5029940;28;20021;-68
2022/03/04 12:32:53;;;;;;;9.95;9.15;;;45.20;22.50;;;;;;5033939;28;20059;-68
2022/03/04 12:35:21;;;;;;;10.40;9.50;;;45.00;22.50;;;;;;5035062;28;20033;-68
2022/03/04 12:37:47;;;;;;;9.63;8.82;;;45.00;22.40;;;;;;5028335;28;20033;-68
2022/03/04 12:40:13;;;;;;;10.38;9.48;;;44.80;22.20;;;;;;5031289;28;20025;-68